Terminal Aerodrome Forecast
Issued by NWS

Home | Current Version | Previous Version | Graphics & Text | Print | Product List | Glossary On
Versions: 1 2 3 4 5 6 7 8 9 10 11 12 13 14 15 16 17 18 19
000
FTUS41 KCLE 291700
TAFFDY
TAF
KFDY 291722Z 2918/3018 28006KT P6SM SCT050 BKN080
     FM292200 28008KT P6SM -SHRA BKN045
     FM300100 26004KT P6SM SCT040 BKN100
     FM301600 26005KT P6SM VCSH BKN035 OVC100=

USA.gov is the U.S. government's official web portal to all federal, state and local government web resources and services.